sensor_id;sensor_type;location;lat;lon;timestamp;temperature;humidity
13600;DHT22;6871;51.34740610;4.31323160;2023-05-07T00:00:08;19.30;89.40
13600;DHT22;6871;51.34740610;4.31323160;2023-05-07T00:02:38;19.30;89.40
13600;DHT22;6871;51.34740610;4.31323160;2023-05-07T00:05:09;19.30;89.40
13600;DHT22;6871;51.34740610;4.31323160;2023-05-07T00:07:38;19.30;89.30
13600;DHT22;6871;51.34740610;4.31323160;2023-05-07T00:10:09;19.30;89.30
13600;DHT22;6871;51.34740610;4.31323160;2023-05-07T00:12:40;19.30;89.40
13600;DHT22;6871;51.34740610;4.31323160;2023-05-07T00:15:10;19.30;89.40
13600;DHT22;6871;51.34740610;4.31323160;2023-05-07T00:17:39;19.20;89.40
13600;DHT22;6871;51.34740610;4.31323160;2023-05-07T00:20:09;19.30;89.40
13600;DHT22;6871;51.34740610;4.31323160;2023-05-07T00:22:38;19.30;89.40
13600;DHT22;6871;51.34740610;4.31323160;2023-05-07T00:25:09;19.30;89.40
13600;DHT22;6871;51.34740610;4.31323160;2023-05-07T00:27:38;19.30;89.40
13600;DHT22;6871;51.34740610;4.31323160;2023-05-07T00:30:09;19.20;89.40
13600;DHT22;6871;51.34740610;4.31323160;2023-05-07T00:32:38;19.30;89.40
13600;DHT22;6871;51.34740610;4.31323160;2023-05-07T00:35:09;19.30;89.40
13600;DHT22;6871;51.34740610;4.31323160;2023-05-07T00:37:38;19.20;89.30
13600;DHT22;6871;51.34740610;4.31323160;2023-05-07T00:40:09;19.20;89.30
13600;DHT22;6871;51.34740610;4.31323160;2023-05-07T00:42:38;19.20;89.40
13600;DHT22;6871;51.34740610;4.31323160;2023-05-07T00:45:09;19.20;89.40
13600;DHT22;6871;51.34740610;4.31323160;2023-05-07T00:47:38;19.20;89.40
13600;DHT22;6871;51.34740610;4.31323160;2023-05-07T00:50:09;19.20;89.30
13600;DHT22;6871;51.34740610;4.31323160;2023-05-07T00:52:40;19.20;89.30
13600;DHT22;6871;51.34740610;4.31323160;2023-05-07T00:55:10;19.20;89.20
13600;DHT22;6871;51.34740610;4.31323160;2023-05-07T00:57:41;19.20;89.30
13600;DHT22;6871;51.34740610;4.31323160;2023-05-07T01:00:12;19.20;89.50
13600;DHT22;6871;51.34740610;4.31323160;2023-05-07T01:02:42;19.20;89.40
13600;DHT22;6871;51.34740610;4.31323160;2023-05-07T01:05:13;19.20;89.40
13600;DHT22;6871;51.34740610;4.31323160;2023-05-07T01:07:44;19.20;89.30
13600;DHT22;6871;51.34740610;4.31323160;2023-05-07T01:10:14;19.20;89.30
13600;DHT22;6871;51.34740610;4.31323160;2023-05-07T01:12:44;19.20;89.40
13600;DHT22;6871;51.34740610;4.31323160;2023-05-07T01:15:15;19.20;89.40
13600;DHT22;6871;51.34740610;4.31323160;2023-05-07T01:17:44;19.20;89.40
13600;DHT22;6871;51.34740610;4.31323160;2023-05-07T01:20:14;19.20;89.40
13600;DHT22;6871;51.34740610;4.31323160;2023-05-07T01:22:44;19.20;89.40
13600;DHT22;6871;51.34740610;4.31323160;2023-05-07T01:25:13;19.20;89.40
13600;DHT22;6871;51.34740610;4.31323160;2023-05-07T01:27:43;19.10;89.30
13600;DHT22;6871;51.34740610;4.31323160;2023-05-07T01:30:13;19.20;89.40
13600;DHT22;6871;51.34740610;4.31323160;2023-05-07T01:32:45;19.20;89.40
13600;DHT22;6871;51.34740610;4.31323160;2023-05-07T01:35:18;19.10;89.30
13600;DHT22;6871;51.34740610;4.31323160;2023-05-07T01:37:48;19.20;89.30
13600;DHT22;6871;51.34740610;4.31323160;2023-05-07T01:40:18;19.10;89.20
13600;DHT22;6871;51.34740610;4.31323160;2023-05-07T01:42:47;19.10;89.20
13600;DHT22;6871;51.34740610;4.31323160;2023-05-07T01:45:18;19.10;89.40
13600;DHT22;6871;51.34740610;4.31323160;2023-05-07T01:47:47;19.10;89.30
13600;DHT22;6871;51.34740610;4.31323160;2023-05-07T01:50:19;19.20;89.40
13600;DHT22;6871;51.34740610;4.31323160;2023-05-07T01:52:50;19.10;89.30
13600;DHT22;6871;51.34740610;4.31323160;2023-05-07T01:55:20;19.10;89.30
13600;DHT22;6871;51.34740610;4.31323160;2023-05-07T01:57:49;19.10;89.30
13600;DHT22;6871;51.34740610;4.31323160;2023-05-07T02:00:19;19.10;89.30
13600;DHT22;6871;51.34740610;4.31323160;2023-05-07T02:02:49;19.10;89.40
13600;DHT22;6871;51.34740610;4.31323160;2023-05-07T02:05:18;19.10;89.30
13600;DHT22;6871;51.34740610;4.31323160;2023-05-07T02:07:47;19.10;89.30
13600;DHT22;6871;51.34740610;4.31323160;2023-05-07T02:10:17;19.10;89.30
13600;DHT22;6871;51.34740610;4.31323160;2023-05-07T02:12:46;19.10;89.30
13600;DHT22;6871;51.34740610;4.31323160;2023-05-07T02:15:15;19.10;89.20
13600;DHT22;6871;51.34740610;4.31323160;2023-05-07T02:18:00;19.10;89.30
13600;DHT22;6871;51.34740610;4.31323160;2023-05-07T02:20:29;19.10;89.30
13600;DHT22;6871;51.34740610;4.31323160;2023-05-07T02:22:58;19.10;89.30
13600;DHT22;6871;51.34740610;4.31323160;2023-05-07T02:25:28;19.10;89.30
13600;DHT22;6871;51.34740610;4.31323160;2023-05-07T02:27:57;19.10;89.30
13600;DHT22;6871;51.34740610;4.31323160;2023-05-07T02:30:27;19.10;89.30
13600;DHT22;6871;51.34740610;4.31323160;2023-05-07T02:32:56;19.10;89.40
13600;DHT22;6871;51.34740610;4.31323160;2023-05-07T02:35:25;19.10;89.40
13600;DHT22;6871;51.34740610;4.31323160;2023-05-07T02:37:54;19.10;89.40
13600;DHT22;6871;51.34740610;4.31323160;2023-05-07T02:40:24;19.10;89.30
13600;DHT22;6871;51.34740610;4.31323160;2023-05-07T02:42:53;19.00;89.20
13600;DHT22;6871;51.34740610;4.31323160;2023-05-07T02:45:22;19.10;89.30
13600;DHT22;6871;51.34740610;4.31323160;2023-05-07T02:47:51;19.10;89.40
13600;DHT22;6871;51.34740610;4.31323160;2023-05-07T02:50:20;19.10;89.40
13600;DHT22;6871;51.34740610;4.31323160;2023-05-07T02:52:49;19.00;89.20
13600;DHT22;6871;51.34740610;4.31323160;2023-05-07T02:55:18;19.00;89.20
13600;DHT22;6871;51.34740610;4.31323160;2023-05-07T02:57:47;19.10;89.20
13600;DHT22;6871;51.34740610;4.31323160;2023-05-07T03:00:18;19.00;89.40
13600;DHT22;6871;51.34740610;4.31323160;2023-05-07T03:02:48;19.10;89.20
13600;DHT22;6871;51.34740610;4.31323160;2023-05-07T03:05:18;19.10;89.30
13600;DHT22;6871;51.34740610;4.31323160;2023-05-07T03:07:47;19.10;89.30
13600;DHT22;6871;51.34740610;4.31323160;2023-05-07T03:10:17;19.10;89.20
13600;DHT22;6871;51.34740610;4.31323160;2023-05-07T03:12:48;19.00;89.10
13600;DHT22;6871;51.34740610;4.31323160;2023-05-07T03:15:20;19.10;89.20
13600;DHT22;6871;51.34740610;4.31323160;2023-05-07T03:17:49;19.00;89.10
13600;DHT22;6871;51.34740610;4.31323160;2023-05-07T03:20:19;19.00;89.50
13600;DHT22;6871;51.34740610;4.31323160;2023-05-07T03:22:48;19.10;89.20
13600;DHT22;6871;51.34740610;4.31323160;2023-05-07T03:25:17;19.10;89.20
13600;DHT22;6871;51.34740610;4.31323160;2023-05-07T03:27:46;19.10;89.20
13600;DHT22;6871;51.34740610;4.31323160;2023-05-07T03:30:15;19.00;89.10
13600;DHT22;6871;51.34740610;4.31323160;2023-05-07T03:32:44;19.10;89.30
13600;DHT22;6871;51.34740610;4.31323160;2023-05-07T03:35:13;19.00;89.20
13600;DHT22;6871;51.34740610;4.31323160;2023-05-07T03:37:42;19.00;89.20
13600;DHT22;6871;51.34740610;4.31323160;2023-05-07T03:40:12;19.00;89.20
13600;DHT22;6871;51.34740610;4.31323160;2023-05-07T03:42:41;19.00;89.10
13600;DHT22;6871;51.34740610;4.31323160;2023-05-07T03:45:11;19.00;89.10
13600;DHT22;6871;51.34740610;4.31323160;2023-05-07T03:47:42;19.00;89.20
13600;DHT22;6871;51.34740610;4.31323160;2023-05-07T03:50:11;19.00;89.20
13600;DHT22;6871;51.34740610;4.31323160;2023-05-07T03:52:40;19.00;89.10
13600;DHT22;6871;51.34740610;4.31323160;2023-05-07T03:55:10;19.00;89.10
13600;DHT22;6871;51.34740610;4.31323160;2023-05-07T03:57:39;19.00;89.90
13600;DHT22;6871;51.34740610;4.31323160;2023-05-07T04:00:11;19.00;89.10
13600;DHT22;6871;51.34740610;4.31323160;2023-05-07T04:02:40;19.00;89.20
13600;DHT22;6871;51.34740610;4.31323160;2023-05-07T04:05:09;19.00;89.20
13600;DHT22;6871;51.34740610;4.31323160;2023-05-07T04:07:38;19.00;89.10
13600;DHT22;6871;51.34740610;4.31323160;2023-05-07T04:10:08;19.00;89.10
13600;DHT22;6871;51.34740610;4.31323160;2023-05-07T04:12:38;19.00;89.00
13600;DHT22;6871;51.34740610;4.31323160;2023-05-07T04:15:09;19.00;89.10
13600;DHT22;6871;51.34740610;4.31323160;2023-05-07T04:17:38;19.00;89.20
13600;DHT22;6871;51.34740610;4.31323160;2023-05-07T04:20:12;19.00;89.20
13600;DHT22;6871;51.34740610;4.31323160;2023-05-07T04:22:41;19.00;89.00
13600;DHT22;6871;51.34740610;4.31323160;2023-05-07T04:25:11;19.00;89.10
13600;DHT22;6871;51.34740610;4.31323160;2023-05-07T04:27:40;18.90;89.00
13600;DHT22;6871;51.34740610;4.31323160;2023-05-07T04:30:11;19.00;89.10
13600;DHT22;6871;51.34740610;4.31323160;2023-05-07T04:32:41;19.00;89.10
13600;DHT22;6871;51.34740610;4.31323160;2023-05-07T04:35:12;19.00;89.10
13600;DHT22;6871;51.34740610;4.31323160;2023-05-07T04:37:41;19.00;89.10
13600;DHT22;6871;51.34740610;4.31323160;2023-05-07T04:40:10;18.90;89.00
13600;DHT22;6871;51.34740610;4.31323160;2023-05-07T04:42:39;19.00;89.00
13600;DHT22;6871;51.34740610;4.31323160;2023-05-07T04:45:10;19.00;89.90
13600;DHT22;6871;51.34740610;4.31323160;2023-05-07T04:47:40;18.90;89.50
13600;DHT22;6871;51.34740610;4.31323160;2023-05-07T06:34:10;18.80;89.00
13600;DHT22;6871;51.34740610;4.31323160;2023-05-07T07:52:21;18.90;89.00
13600;DHT22;6871;51.34740610;4.31323160;2023-05-07T12:03:11;19.10;90.10
13600;DHT22;6871;51.34740610;4.31323160;2023-05-07T12:05:52;19.00;90.60
13600;DHT22;6871;51.34740610;4.31323160;2023-05-07T12:15:27;19.20;90.20
13600;DHT22;6871;51.34740610;4.31323160;2023-05-07T12:21:50;19.30;90.20
13600;DHT22;6871;51.34740610;4.31323160;2023-05-07T12:24:28;19.20;90.00
13600;DHT22;6871;51.34740610;4.31323160;2023-05-07T13:26:03;19.40;89.70
13600;DHT22;6871;51.34740610;4.31323160;2023-05-07T13:29:00;19.40;89.70
13600;DHT22;6871;51.34740610;4.31323160;2023-05-07T13:52:21;19.40;89.60
13600;DHT22;6871;51.34740610;4.31323160;2023-05-07T13:54:53;19.40;89.80
13600;DHT22;6871;51.34740610;4.31323160;2023-05-07T14:04:12;19.50;89.60
13600;DHT22;6871;51.34740610;4.31323160;2023-05-07T14:20:28;19.50;89.70
13600;DHT22;6871;51.34740610;4.31323160;2023-05-07T14:23:00;19.50;89.80
13600;DHT22;6871;51.34740610;4.31323160;2023-05-07T14:29:13;19.50;89.60
13600;DHT22;6871;51.34740610;4.31323160;2023-05-07T14:35:22;19.50;89.50
13600;DHT22;6871;51.34740610;4.31323160;2023-05-07T14:41:23;19.50;89.60
13600;DHT22;6871;51.34740610;4.31323160;2023-05-07T14:44:01;19.50;90.20
13600;DHT22;6871;51.34740610;4.31323160;2023-05-07T14:46:33;19.50;89.50
13600;DHT22;6871;51.34740610;4.31323160;2023-05-07T14:52:26;19.50;89.40
13600;DHT22;6871;51.34740610;4.31323160;2023-05-07T14:54:59;19.50;89.60
13600;DHT22;6871;51.34740610;4.31323160;2023-05-07T15:04:53;19.50;89.50
13600;DHT22;6871;51.34740610;4.31323160;2023-05-07T15:11:03;19.50;89.60
13600;DHT22;6871;51.34740610;4.31323160;2023-05-07T15:17:12;19.50;89.60
13600;DHT22;6871;51.34740610;4.31323160;2023-05-07T15:22:58;19.50;89.80
13600;DHT22;6871;51.34740610;4.31323160;2023-05-07T15:25:30;19.60;89.90
13600;DHT22;6871;51.34740610;4.31323160;2023-05-07T15:28:09;19.50;89.80
13600;DHT22;6871;51.34740610;4.31323160;2023-05-07T15:34:02;19.50;89.60
13600;DHT22;6871;51.34740610;4.31323160;2023-05-07T15:46:56;19.60;89.80
13600;DHT22;6871;51.34740610;4.31323160;2023-05-07T15:49:29;19.60;89.90
13600;DHT22;6871;51.34740610;4.31323160;2023-05-07T15:52:01;19.60;90.00
13600;DHT22;6871;51.34740610;4.31323160;2023-05-07T16:08:10;19.60;89.90
13600;DHT22;6871;51.34740610;4.31323160;2023-05-07T16:10:41;19.60;90.00
13600;DHT22;6871;51.34740610;4.31323160;2023-05-07T16:20:02;19.60;90.00
13600;DHT22;6871;51.34740610;4.31323160;2023-05-07T16:38:59;19.60;90.20
13600;DHT22;6871;51.34740610;4.31323160;2023-05-07T16:41:34;19.60;90.20
13600;DHT22;6871;51.34740610;4.31323160;2023-05-07T16:47:29;19.70;90.20
13600;DHT22;6871;51.34740610;4.31323160;2023-05-07T17:20:36;19.60;90.40
13600;DHT22;6871;51.34740610;4.31323160;2023-05-07T17:23:09;19.60;90.60
13600;DHT22;6871;51.34740610;4.31323160;2023-05-07T17:25:39;19.60;90.60
13600;DHT22;6871;51.34740610;4.31323160;2023-05-07T17:43:17;19.60;90.50
13600;DHT22;6871;51.34740610;4.31323160;2023-05-07T17:45:49;19.60;90.50
13600;DHT22;6871;51.34740610;4.31323160;2023-05-07T17:48:19;19.60;90.50
13600;DHT22;6871;51.34740610;4.31323160;2023-05-07T17:51:00;19.60;90.50
13600;DHT22;6871;51.34740610;4.31323160;2023-05-07T17:56:55;19.60;90.60
13600;DHT22;6871;51.34740610;4.31323160;2023-05-07T18:02:54;19.60;90.40
13600;DHT22;6871;51.34740610;4.31323160;2023-05-07T18:05:26;19.60;90.60
13600;DHT22;6871;51.34740610;4.31323160;2023-05-07T18:07:58;19.60;90.70
13600;DHT22;6871;51.34740610;4.31323160;2023-05-07T18:17:12;19.60;90.50
13600;DHT22;6871;51.34740610;4.31323160;2023-05-07T18:23:07;19.50;90.70
13600;DHT22;6871;51.34740610;4.31323160;2023-05-07T18:25:48;19.50;90.70
13600;DHT22;6871;51.34740610;4.31323160;2023-05-07T18:28:19;19.50;90.70
13600;DHT22;6871;51.34740610;4.31323160;2023-05-07T18:30:49;19.50;90.60
13600;DHT22;6871;51.34740610;4.31323160;2023-05-07T18:33:21;19.50;90.60
13600;DHT22;6871;51.34740610;4.31323160;2023-05-07T18:35:51;19.60;90.50
13600;DHT22;6871;51.34740610;4.31323160;2023-05-07T18:38:21;19.60;90.80
13600;DHT22;6871;51.34740610;4.31323160;2023-05-07T18:40:51;19.60;90.80
13600;DHT22;6871;51.34740610;4.31323160;2023-05-07T18:46:48;19.60;90.60
13600;DHT22;6871;51.34740610;4.31323160;2023-05-07T18:49:21;19.60;90.60
13600;DHT22;6871;51.34740610;4.31323160;2023-05-07T19:02:00;19.50;90.60
13600;DHT22;6871;51.34740610;4.31323160;2023-05-07T19:04:33;19.50;90.60
13600;DHT22;6871;51.34740610;4.31323160;2023-05-07T19:31:08;19.50;90.80
13600;DHT22;6871;51.34740610;4.31323160;2023-05-07T19:40:48;19.40;90.80
13600;DHT22;6871;51.34740610;4.31323160;2023-05-07T19:49:40;19.40;90.80
13600;DHT22;6871;51.34740610;4.31323160;2023-05-07T20:02:26;19.40;90.70
13600;DHT22;6871;51.34740610;4.31323160;2023-05-07T20:04:57;19.40;90.70
13600;DHT22;6871;51.34740610;4.31323160;2023-05-07T20:14:14;19.50;90.70
13600;DHT22;6871;51.34740610;4.31323160;2023-05-07T20:17:10;19.50;90.70
13600;DHT22;6871;51.34740610;4.31323160;2023-05-07T20:19:49;19.40;90.70
13600;DHT22;6871;51.34740610;4.31323160;2023-05-07T20:22:22;19.50;90.60
13600;DHT22;6871;51.34740610;4.31323160;2023-05-07T20:24:52;19.50;90.60
13600;DHT22;6871;51.34740610;4.31323160;2023-05-07T20:27:34;19.50;90.60
13600;DHT22;6871;51.34740610;4.31323160;2023-05-07T20:30:11;19.50;90.60
13600;DHT22;6871;51.34740610;4.31323160;2023-05-07T21:10:23;19.40;90.50
13600;DHT22;6871;51.34740610;4.31323160;2023-05-07T21:13:18;19.50;90.50
13600;DHT22;6871;51.34740610;4.31323160;2023-05-07T21:19:19;19.50;90.50
13600;DHT22;6871;51.34740610;4.31323160;2023-05-07T21:21:54;19.50;90.20
13600;DHT22;6871;51.34740610;4.31323160;2023-05-07T21:31:12;19.50;90.40
13600;DHT22;6871;51.34740610;4.31323160;2023-05-07T21:34:24;19.40;90.50
13600;DHT22;6871;51.34740610;4.31323160;2023-05-07T21:50:25;19.40;90.70
13600;DHT22;6871;51.34740610;4.31323160;2023-05-07T21:53:17;19.40;90.60
13600;DHT22;6871;51.34740610;4.31323160;2023-05-07T22:16:23;19.40;90.60
13600;DHT22;6871;51.34740610;4.31323160;2023-05-07T22:36:08;19.40;90.50
13600;DHT22;6871;51.34740610;4.31323160;2023-05-07T22:45:48;19.40;90.50
13600;DHT22;6871;51.34740610;4.31323160;2023-05-07T23:32:04;19.30;90.40
13600;DHT22;6871;51.34740610;4.31323160;2023-05-07T23:38:25;19.30;90.40
